sensor_id;sensor_type;location;lat;lon;timestamp;P1;durP1;ratioP1;P2;durP2;ratioP2
30185;SDS011;31152;49.190;8.122;2022-10-16T00:01:29;1.92;;;1.10;;
30185;SDS011;31152;49.190;8.122;2022-10-16T00:03:59;6.47;;;1.42;;
30185;SDS011;31152;49.190;8.122;2022-10-16T00:06:27;4.00;;;1.30;;
30185;SDS011;31152;49.190;8.122;2022-10-16T00:08:55;6.13;;;1.30;;
30185;SDS011;31152;49.190;8.122;2022-10-16T00:11:30;4.00;;;1.20;;
30185;SDS011;31152;49.190;8.122;2022-10-16T00:14:03;4.30;;;1.35;;
30185;SDS011;31152;49.190;8.122;2022-10-16T00:16:33;4.05;;;1.60;;
30185;SDS011;31152;49.190;8.122;2022-10-16T00:19:00;2.03;;;1.35;;
30185;SDS011;31152;49.190;8.122;2022-10-16T00:21:28;4.97;;;1.55;;
30185;SDS011;31152;49.190;8.122;2022-10-16T00:24:06;4.00;;;1.75;;
30185;SDS011;31152;49.190;8.122;2022-10-16T00:26:37;2.65;;;1.58;;
30185;SDS011;31152;49.190;8.122;2022-10-16T00:29:05;5.53;;;1.77;;
30185;SDS011;31152;49.190;8.122;2022-10-16T00:31:33;5.28;;;1.80;;
30185;SDS011;31152;49.190;8.122;2022-10-16T00:34:00;5.60;;;1.83;;
30185;SDS011;31152;49.190;8.122;2022-10-16T00:36:27;3.72;;;1.70;;
30185;SDS011;31152;49.190;8.122;2022-10-16T00:38:54;2.17;;;1.70;;
30185;SDS011;31152;49.190;8.122;2022-10-16T00:41:24;7.40;;;1.92;;
30185;SDS011;31152;49.190;8.122;2022-10-16T00:46:25;5.90;;;1.60;;
30185;SDS011;31152;49.190;8.122;2022-10-16T00:51:35;6.30;;;2.13;;
30185;SDS011;31152;49.190;8.122;2022-10-16T00:54:04;4.72;;;2.13;;
30185;SDS011;31152;49.190;8.122;2022-10-16T00:56:39;8.48;;;2.22;;
30185;SDS011;31152;49.190;8.122;2022-10-16T00:59:15;7.88;;;2.28;;
30185;SDS011;31152;49.190;8.122;2022-10-16T01:01:51;3.15;;;1.58;;
30185;SDS011;31152;49.190;8.122;2022-10-16T01:04:21;3.03;;;1.63;;
30185;SDS011;31152;49.190;8.122;2022-10-16T01:18:16;5.43;;;1.92;;
30185;SDS011;31152;49.190;8.122;2022-10-16T01:20:53;3.40;;;1.58;;
30185;SDS011;31152;49.190;8.122;2022-10-16T01:28:46;6.68;;;2.00;;
30185;SDS011;31152;49.190;8.122;2022-10-16T01:31:26;8.83;;;2.13;;
30185;SDS011;31152;49.190;8.122;2022-10-16T01:33:59;4.47;;;2.10;;
30185;SDS011;31152;49.190;8.122;2022-10-16T01:36:41;2.50;;;1.70;;
30185;SDS011;31152;49.190;8.122;2022-10-16T01:39:20;6.10;;;1.80;;
30185;SDS011;31152;49.190;8.122;2022-10-16T01:42:12;9.20;;;2.00;;
30185;SDS011;31152;49.190;8.122;2022-10-16T01:44:42;5.50;;;2.17;;
30185;SDS011;31152;49.190;8.122;2022-10-16T01:47:11;4.18;;;2.13;;
30185;SDS011;31152;49.190;8.122;2022-10-16T01:49:42;3.47;;;1.67;;
30185;SDS011;31152;49.190;8.122;2022-10-16T01:52:12;5.82;;;2.28;;
30185;SDS011;31152;49.190;8.122;2022-10-16T01:54:42;9.05;;;1.95;;
30185;SDS011;31152;49.190;8.122;2022-10-16T01:57:12;5.40;;;1.90;;
30185;SDS011;31152;49.190;8.122;2022-10-16T01:59:42;5.97;;;2.08;;
30185;SDS011;31152;49.190;8.122;2022-10-16T02:02:12;5.90;;;1.77;;
30185;SDS011;31152;49.190;8.122;2022-10-16T02:04:46;2.08;;;1.70;;
30185;SDS011;31152;49.190;8.122;2022-10-16T02:07:17;3.60;;;1.80;;
30185;SDS011;31152;49.190;8.122;2022-10-16T02:09:46;7.45;;;1.90;;
30185;SDS011;31152;49.190;8.122;2022-10-16T02:12:15;2.25;;;1.65;;
30185;SDS011;31152;49.190;8.122;2022-10-16T02:14:51;4.93;;;1.70;;
30185;SDS011;31152;49.190;8.122;2022-10-16T02:17:19;6.13;;;1.90;;
30185;SDS011;31152;49.190;8.122;2022-10-16T02:19:47;2.92;;;2.20;;
30185;SDS011;31152;49.190;8.122;2022-10-16T02:22:23;8.75;;;1.80;;
30185;SDS011;31152;49.190;8.122;2022-10-16T02:24:59;4.50;;;1.92;;
30185;SDS011;31152;49.190;8.122;2022-10-16T02:30:27;5.95;;;1.98;;
30185;SDS011;31152;49.190;8.122;2022-10-16T02:32:58;3.50;;;2.20;;
30185;SDS011;31152;49.190;8.122;2022-10-16T02:35:27;2.50;;;1.90;;
30185;SDS011;31152;49.190;8.122;2022-10-16T02:37:57;3.83;;;1.88;;
30185;SDS011;31152;49.190;8.122;2022-10-16T02:40:25;3.63;;;1.80;;
30185;SDS011;31152;49.190;8.122;2022-10-16T02:42:53;5.75;;;1.92;;
30185;SDS011;31152;49.190;8.122;2022-10-16T02:45:21;3.20;;;2.03;;
30185;SDS011;31152;49.190;8.122;2022-10-16T02:47:49;2.97;;;1.83;;
30185;SDS011;31152;49.190;8.122;2022-10-16T02:50:15;5.85;;;2.35;;
30185;SDS011;31152;49.190;8.122;2022-10-16T02:52:42;9.25;;;2.17;;
30185;SDS011;31152;49.190;8.122;2022-10-16T02:55:11;4.75;;;2.00;;
30185;SDS011;31152;49.190;8.122;2022-10-16T02:57:38;6.20;;;2.30;;
30185;SDS011;31152;49.190;8.122;2022-10-16T03:00:07;11.30;;;2.55;;
30185;SDS011;31152;49.190;8.122;2022-10-16T03:02:35;9.57;;;2.80;;
30185;SDS011;31152;49.190;8.122;2022-10-16T03:05:02;7.25;;;2.00;;
30185;SDS011;31152;49.190;8.122;2022-10-16T03:07:28;4.75;;;2.28;;
30185;SDS011;31152;49.190;8.122;2022-10-16T03:09:55;8.27;;;2.65;;
30185;SDS011;31152;49.190;8.122;2022-10-16T03:12:22;4.90;;;2.10;;
30185;SDS011;31152;49.190;8.122;2022-10-16T03:14:48;5.68;;;2.03;;
30185;SDS011;31152;49.190;8.122;2022-10-16T03:17:15;5.95;;;2.10;;
30185;SDS011;31152;49.190;8.122;2022-10-16T03:19:42;7.95;;;2.20;;
30185;SDS011;31152;49.190;8.122;2022-10-16T03:22:09;6.53;;;2.08;;
30185;SDS011;31152;49.190;8.122;2022-10-16T03:24:36;5.75;;;2.10;;
30185;SDS011;31152;49.190;8.122;2022-10-16T03:27:05;4.95;;;2.45;;
30185;SDS011;31152;49.190;8.122;2022-10-16T03:29:32;6.88;;;1.92;;
30185;SDS011;31152;49.190;8.122;2022-10-16T03:31:59;3.08;;;1.83;;
30185;SDS011;31152;49.190;8.122;2022-10-16T03:34:26;3.58;;;2.03;;
30185;SDS011;31152;49.190;8.122;2022-10-16T03:36:53;6.07;;;2.00;;
30185;SDS011;31152;49.190;8.122;2022-10-16T03:39:19;3.20;;;2.15;;
30185;SDS011;31152;49.190;8.122;2022-10-16T03:41:46;3.97;;;1.90;;
30185;SDS011;31152;49.190;8.122;2022-10-16T03:44:13;4.82;;;1.83;;
30185;SDS011;31152;49.190;8.122;2022-10-16T03:46:40;6.32;;;2.10;;
30185;SDS011;31152;49.190;8.122;2022-10-16T03:49:07;4.15;;;1.80;;
30185;SDS011;31152;49.190;8.122;2022-10-16T03:51:35;4.25;;;2.08;;
30185;SDS011;31152;49.190;8.122;2022-10-16T03:54:02;5.80;;;1.98;;
30185;SDS011;31152;49.190;8.122;2022-10-16T03:56:31;8.77;;;2.30;;
30185;SDS011;31152;49.190;8.122;2022-10-16T03:58:58;4.30;;;1.90;;
30185;SDS011;31152;49.190;8.122;2022-10-16T04:01:24;4.78;;;1.85;;
30185;SDS011;31152;49.190;8.122;2022-10-16T04:03:53;6.43;;;2.10;;
30185;SDS011;31152;49.190;8.122;2022-10-16T04:06:20;4.00;;;2.00;;
30185;SDS011;31152;49.190;8.122;2022-10-16T04:08:47;3.28;;;1.85;;
30185;SDS011;31152;49.190;8.122;2022-10-16T04:11:13;4.78;;;1.80;;
30185;SDS011;31152;49.190;8.122;2022-10-16T04:13:40;2.17;;;1.92;;
30185;SDS011;31152;49.190;8.122;2022-10-16T04:16:07;4.47;;;2.00;;
30185;SDS011;31152;49.190;8.122;2022-10-16T04:18:34;6.55;;;2.05;;
30185;SDS011;31152;49.190;8.122;2022-10-16T04:21:04;3.33;;;1.80;;
30185;SDS011;31152;49.190;8.122;2022-10-16T04:23:32;4.28;;;2.38;;
30185;SDS011;31152;49.190;8.122;2022-10-16T04:25:59;5.75;;;2.00;;
30185;SDS011;31152;49.190;8.122;2022-10-16T04:28:28;5.57;;;1.67;;
30185;SDS011;31152;49.190;8.122;2022-10-16T04:30:55;7.18;;;1.90;;
30185;SDS011;31152;49.190;8.122;2022-10-16T04:33:22;10.77;;;1.80;;
30185;SDS011;31152;49.190;8.122;2022-10-16T04:35:57;2.45;;;1.63;;
30185;SDS011;31152;49.190;8.122;2022-10-16T04:38:25;2.95;;;1.90;;
30185;SDS011;31152;49.190;8.122;2022-10-16T04:40:52;3.92;;;1.67;;
30185;SDS011;31152;49.190;8.122;2022-10-16T04:43:19;7.97;;;2.00;;
30185;SDS011;31152;49.190;8.122;2022-10-16T04:45:46;9.55;;;2.13;;
30185;SDS011;31152;49.190;8.122;2022-10-16T04:48:13;3.45;;;2.03;;
30185;SDS011;31152;49.190;8.122;2022-10-16T04:50:40;3.58;;;2.13;;
30185;SDS011;31152;49.190;8.122;2022-10-16T04:53:07;5.32;;;2.47;;
30185;SDS011;31152;49.190;8.122;2022-10-16T04:55:34;2.88;;;1.80;;
30185;SDS011;31152;49.190;8.122;2022-10-16T04:58:01;2.63;;;1.92;;
30185;SDS011;31152;49.190;8.122;2022-10-16T05:00:27;5.70;;;2.20;;
30185;SDS011;31152;49.190;8.122;2022-10-16T05:02:54;3.83;;;1.70;;
30185;SDS011;31152;49.190;8.122;2022-10-16T05:05:21;14.27;;;2.22;;
30185;SDS011;31152;49.190;8.122;2022-10-16T05:07:49;4.80;;;2.35;;
30185;SDS011;31152;49.190;8.122;2022-10-16T05:10:15;5.28;;;2.00;;
30185;SDS011;31152;49.190;8.122;2022-10-16T05:12:43;4.93;;;2.42;;
30185;SDS011;31152;49.190;8.122;2022-10-16T05:15:12;7.00;;;2.42;;
30185;SDS011;31152;49.190;8.122;2022-10-16T05:17:38;3.60;;;2.25;;
30185;SDS011;31152;49.190;8.122;2022-10-16T05:20:10;5.25;;;2.45;;
30185;SDS011;31152;49.190;8.122;2022-10-16T05:22:37;7.68;;;2.40;;
30185;SDS011;31152;49.190;8.122;2022-10-16T05:25:04;4.30;;;2.30;;
30185;SDS011;31152;49.190;8.122;2022-10-16T05:27:31;4.82;;;2.38;;
30185;SDS011;31152;49.190;8.122;2022-10-16T05:29:57;4.88;;;2.83;;
30185;SDS011;31152;49.190;8.122;2022-10-16T05:32:24;3.63;;;2.72;;
30185;SDS011;31152;49.190;8.122;2022-10-16T05:34:51;5.07;;;2.78;;
30185;SDS011;31152;49.190;8.122;2022-10-16T05:37:18;15.60;;;3.10;;
30185;SDS011;31152;49.190;8.122;2022-10-16T05:39:44;6.55;;;3.00;;
30185;SDS011;31152;49.190;8.122;2022-10-16T05:42:11;5.18;;;2.60;;
30185;SDS011;31152;49.190;8.122;2022-10-16T05:44:38;5.82;;;3.28;;
30185;SDS011;31152;49.190;8.122;2022-10-16T05:47:06;6.20;;;3.10;;
30185;SDS011;31152;49.190;8.122;2022-10-16T05:49:33;7.28;;;3.00;;
30185;SDS011;31152;49.190;8.122;2022-10-16T05:52:05;6.55;;;3.10;;
30185;SDS011;31152;49.190;8.122;2022-10-16T05:54:36;6.25;;;2.88;;
30185;SDS011;31152;49.190;8.122;2022-10-16T05:57:05;5.22;;;2.83;;
30185;SDS011;31152;49.190;8.122;2022-10-16T05:59:32;9.93;;;2.67;;
30185;SDS011;31152;49.190;8.122;2022-10-16T06:01:59;5.95;;;2.70;;
30185;SDS011;31152;49.190;8.122;2022-10-16T06:04:26;7.45;;;2.63;;
30185;SDS011;31152;49.190;8.122;2022-10-16T06:06:52;7.55;;;3.00;;
30185;SDS011;31152;49.190;8.122;2022-10-16T06:09:19;8.48;;;3.30;;
30185;SDS011;31152;49.190;8.122;2022-10-16T06:11:46;9.35;;;2.80;;
30185;SDS011;31152;49.190;8.122;2022-10-16T06:14:12;6.13;;;3.00;;
30185;SDS011;31152;49.190;8.122;2022-10-16T06:16:41;6.97;;;3.05;;
30185;SDS011;31152;49.190;8.122;2022-10-16T06:19:10;3.85;;;2.90;;
30185;SDS011;31152;49.190;8.122;2022-10-16T06:21:37;13.23;;;3.30;;
30185;SDS011;31152;49.190;8.122;2022-10-16T06:24:06;7.78;;;3.15;;
30185;SDS011;31152;49.190;8.122;2022-10-16T06:26:34;6.80;;;3.35;;
30185;SDS011;31152;49.190;8.122;2022-10-16T06:29:00;4.20;;;2.85;;
30185;SDS011;31152;49.190;8.122;2022-10-16T06:31:28;7.32;;;2.80;;
30185;SDS011;31152;49.190;8.122;2022-10-16T06:33:57;7.65;;;3.15;;
30185;SDS011;31152;49.190;8.122;2022-10-16T06:36:24;6.78;;;2.92;;
30185;SDS011;31152;49.190;8.122;2022-10-16T06:38:52;8.02;;;2.80;;
30185;SDS011;31152;49.190;8.122;2022-10-16T06:41:19;7.22;;;3.08;;
30185;SDS011;31152;49.190;8.122;2022-10-16T06:43:48;4.28;;;3.05;;
30185;SDS011;31152;49.190;8.122;2022-10-16T06:46:15;6.70;;;2.80;;
30185;SDS011;31152;49.190;8.122;2022-10-16T06:48:44;9.27;;;3.38;;
30185;SDS011;31152;49.190;8.122;2022-10-16T06:51:12;6.63;;;3.10;;
30185;SDS011;31152;49.190;8.122;2022-10-16T06:53:49;7.93;;;3.20;;
30185;SDS011;31152;49.190;8.122;2022-10-16T06:56:35;5.75;;;3.00;;
30185;SDS011;31152;49.190;8.122;2022-10-16T06:59:02;6.95;;;3.17;;
30185;SDS011;31152;49.190;8.122;2022-10-16T07:01:29;5.13;;;3.08;;
30185;SDS011;31152;49.190;8.122;2022-10-16T07:03:56;6.70;;;3.25;;
30185;SDS011;31152;49.190;8.122;2022-10-16T07:06:24;4.85;;;3.10;;
30185;SDS011;31152;49.190;8.122;2022-10-16T07:08:52;7.65;;;3.05;;
30185;SDS011;31152;49.190;8.122;2022-10-16T07:11:20;8.27;;;3.08;;
30185;SDS011;31152;49.190;8.122;2022-10-16T07:13:49;6.95;;;3.08;;
30185;SDS011;31152;49.190;8.122;2022-10-16T07:16:22;6.00;;;3.05;;
30185;SDS011;31152;49.190;8.122;2022-10-16T07:18:53;8.75;;;3.28;;
30185;SDS011;31152;49.190;8.122;2022-10-16T07:21:26;6.07;;;2.80;;
30185;SDS011;31152;49.190;8.122;2022-10-16T07:24:01;8.60;;;3.10;;
30185;SDS011;31152;49.190;8.122;2022-10-16T07:26:29;6.57;;;3.45;;
30185;SDS011;31152;49.190;8.122;2022-10-16T07:28:57;6.43;;;2.80;;
30185;SDS011;31152;49.190;8.122;2022-10-16T07:31:26;6.93;;;3.10;;
30185;SDS011;31152;49.190;8.122;2022-10-16T07:33:54;6.65;;;3.33;;
30185;SDS011;31152;49.190;8.122;2022-10-16T07:36:23;4.55;;;2.63;;
30185;SDS011;31152;49.190;8.122;2022-10-16T07:38:50;7.35;;;3.00;;
30185;SDS011;31152;49.190;8.122;2022-10-16T07:41:22;4.72;;;2.85;;
30185;SDS011;31152;49.190;8.122;2022-10-16T07:43:49;11.85;;;2.90;;
30185;SDS011;31152;49.190;8.122;2022-10-16T07:46:19;6.22;;;2.90;;
30185;SDS011;31152;49.190;8.122;2022-10-16T07:48:47;6.63;;;2.85;;
30185;SDS011;31152;49.190;8.122;2022-10-16T07:51:15;3.83;;;2.60;;
30185;SDS011;31152;49.190;8.122;2022-10-16T07:53:43;5.95;;;2.40;;
30185;SDS011;31152;49.190;8.122;2022-10-16T07:56:10;4.43;;;2.67;;
30185;SDS011;31152;49.190;8.122;2022-10-16T07:58:40;8.10;;;2.40;;
30185;SDS011;31152;49.190;8.122;2022-10-16T08:01:08;8.18;;;2.60;;
30185;SDS011;31152;49.190;8.122;2022-10-16T08:03:36;8.57;;;2.58;;
30185;SDS011;31152;49.190;8.122;2022-10-16T08:06:04;9.60;;;3.22;;
30185;SDS011;31152;49.190;8.122;2022-10-16T08:08:34;4.57;;;2.42;;
30185;SDS011;31152;49.190;8.122;2022-10-16T08:11:01;6.32;;;2.65;;
30185;SDS011;31152;49.190;8.122;2022-10-16T08:13:30;6.03;;;2.63;;
30185;SDS011;31152;49.190;8.122;2022-10-16T08:15:57;6.55;;;2.97;;
30185;SDS011;31152;49.190;8.122;2022-10-16T08:18:26;7.10;;;2.80;;
30185;SDS011;31152;49.190;8.122;2022-10-16T08:20:56;4.97;;;2.58;;
30185;SDS011;31152;49.190;8.122;2022-10-16T08:23:24;6.30;;;2.40;;
30185;SDS011;31152;49.190;8.122;2022-10-16T08:25:52;7.38;;;2.60;;
30185;SDS011;31152;49.190;8.122;2022-10-16T08:28:20;6.40;;;2.70;;
30185;SDS011;31152;49.190;8.122;2022-10-16T08:30:47;5.90;;;2.40;;
30185;SDS011;31152;49.190;8.122;2022-10-16T08:33:14;6.50;;;2.10;;
30185;SDS011;31152;49.190;8.122;2022-10-16T08:35:40;4.20;;;1.90;;
30185;SDS011;31152;49.190;8.122;2022-10-16T08:38:10;7.00;;;2.05;;
30185;SDS011;31152;49.190;8.122;2022-10-16T08:40:36;5.40;;;2.67;;
30185;SDS011;31152;49.190;8.122;2022-10-16T08:49:16;4.38;;;2.60;;
30185;SDS011;31152;49.190;8.122;2022-10-16T08:51:43;6.75;;;2.00;;
30185;SDS011;31152;49.190;8.122;2022-10-16T08:56:45;3.70;;;2.30;;
30185;SDS011;31152;49.190;8.122;2022-10-16T08:59:14;8.45;;;1.90;;
30185;SDS011;31152;49.190;8.122;2022-10-16T09:01:46;5.32;;;2.35;;
30185;SDS011;31152;49.190;8.122;2022-10-16T09:15:02;5.55;;;2.00;;
30185;SDS011;31152;49.190;8.122;2022-10-16T09:22:44;9.43;;;1.60;;
30185;SDS011;31152;49.190;8.122;2022-10-16T09:25:18;5.45;;;2.08;;
30185;SDS011;31152;49.190;8.122;2022-10-16T09:27:48;5.53;;;2.00;;
30185;SDS011;31152;49.190;8.122;2022-10-16T09:30:21;5.95;;;1.60;;
30185;SDS011;31152;49.190;8.122;2022-10-16T09:32:50;6.00;;;1.77;;
30185;SDS011;31152;49.190;8.122;2022-10-16T09:35:22;4.40;;;1.60;;
30185;SDS011;31152;49.190;8.122;2022-10-16T09:37:57;4.00;;;1.70;;
30185;SDS011;31152;49.190;8.122;2022-10-16T09:40:28;3.05;;;1.48;;
30185;SDS011;31152;49.190;8.122;2022-10-16T09:43:22;3.35;;;1.42;;
30185;SDS011;31152;49.190;8.122;2022-10-16T09:46:26;4.10;;;1.50;;
30185;SDS011;31152;49.190;8.122;2022-10-16T09:48:56;2.85;;;1.75;;
30185;SDS011;31152;49.190;8.122;2022-10-16T09:51:28;3.65;;;1.70;;
30185;SDS011;31152;49.190;8.122;2022-10-16T09:54:13;9.25;;;2.25;;
30185;SDS011;31152;49.190;8.122;2022-10-16T09:56:44;4.28;;;1.60;;
30185;SDS011;31152;49.190;8.122;2022-10-16T09:59:16;4.40;;;1.90;;
30185;SDS011;31152;49.190;8.122;2022-10-16T10:01:51;6.47;;;1.88;;
30185;SDS011;31152;49.190;8.122;2022-10-16T10:04:19;2.47;;;1.50;;
30185;SDS011;31152;49.190;8.122;2022-10-16T10:06:47;7.13;;;1.48;;
30185;SDS011;31152;49.190;8.122;2022-10-16T10:14:22;5.20;;;1.50;;
30185;SDS011;31152;49.190;8.122;2022-10-16T10:19:29;2.40;;;1.50;;
30185;SDS011;31152;49.190;8.122;2022-10-16T10:21:58;3.30;;;1.77;;
30185;SDS011;31152;49.190;8.122;2022-10-16T10:24:24;2.38;;;1.50;;
30185;SDS011;31152;49.190;8.122;2022-10-16T10:26:57;5.47;;;1.60;;
30185;SDS011;31152;49.190;8.122;2022-10-16T10:43:01;2.83;;;1.98;;
30185;SDS011;31152;49.190;8.122;2022-10-16T10:45:43;6.85;;;2.17;;
30185;SDS011;31152;49.190;8.122;2022-10-16T10:48:17;5.13;;;1.65;;
30185;SDS011;31152;49.190;8.122;2022-10-16T10:51:05;2.90;;;1.70;;
30185;SDS011;31152;49.190;8.122;2022-10-16T10:56:43;6.72;;;1.60;;
30185;SDS011;31152;49.190;8.122;2022-10-16T11:02:34;7.38;;;1.70;;
30185;SDS011;31152;49.190;8.122;2022-10-16T11:05:31;6.00;;;1.58;;
30185;SDS011;31152;49.190;8.122;2022-10-16T11:08:10;5.70;;;1.60;;
30185;SDS011;31152;49.190;8.122;2022-10-16T11:11:01;5.15;;;1.60;;
30185;SDS011;31152;49.190;8.122;2022-10-16T11:13:39;6.50;;;1.88;;
30185;SDS011;31152;49.190;8.122;2022-10-16T11:16:28;9.80;;;1.70;;
30185;SDS011;31152;49.190;8.122;2022-10-16T11:21:30;6.70;;;1.63;;
30185;SDS011;31152;49.190;8.122;2022-10-16T11:24:08;5.43;;;1.83;;
30185;SDS011;31152;49.190;8.122;2022-10-16T11:26:42;2.95;;;1.58;;
30185;SDS011;31152;49.190;8.122;2022-10-16T11:29:15;3.25;;;1.50;;
30185;SDS011;31152;49.190;8.122;2022-10-16T11:32:03;3.33;;;1.50;;
30185;SDS011;31152;49.190;8.122;2022-10-16T11:34:41;5.93;;;1.83;;
30185;SDS011;31152;49.190;8.122;2022-10-16T11:37:17;4.63;;;1.67;;
30185;SDS011;31152;49.190;8.122;2022-10-16T11:42:21;3.30;;;1.60;;
30185;SDS011;31152;49.190;8.122;2022-10-16T11:45:07;7.45;;;1.98;;
30185;SDS011;31152;49.190;8.122;2022-10-16T11:47:42;5.53;;;1.67;;
30185;SDS011;31152;49.190;8.122;2022-10-16T11:56:05;3.65;;;1.77;;
30185;SDS011;31152;49.190;8.122;2022-10-16T11:58:36;3.47;;;1.67;;
30185;SDS011;31152;49.190;8.122;2022-10-16T12:06:47;4.45;;;2.17;;
30185;SDS011;31152;49.190;8.122;2022-10-16T12:09:30;2.17;;;1.60;;
30185;SDS011;31152;49.190;8.122;2022-10-16T12:11:59;5.88;;;1.88;;
30185;SDS011;31152;49.190;8.122;2022-10-16T12:17:23;4.20;;;1.70;;
30185;SDS011;31152;49.190;8.122;2022-10-16T12:20:00;6.00;;;1.60;;
30185;SDS011;31152;49.190;8.122;2022-10-16T12:25:19;2.10;;;1.50;;
30185;SDS011;31152;49.190;8.122;2022-10-16T12:27:55;2.75;;;2.05;;
30185;SDS011;31152;49.190;8.122;2022-10-16T12:30:23;7.60;;;1.75;;
30185;SDS011;31152;49.190;8.122;2022-10-16T12:32:53;5.13;;;2.20;;
30185;SDS011;31152;49.190;8.122;2022-10-16T12:35:26;3.42;;;1.88;;
30185;SDS011;31152;49.190;8.122;2022-10-16T12:38:14;3.58;;;1.50;;
30185;SDS011;31152;49.190;8.122;2022-10-16T12:40:44;5.63;;;1.92;;
30185;SDS011;31152;49.190;8.122;2022-10-16T12:46:02;4.05;;;2.17;;
30185;SDS011;31152;49.190;8.122;2022-10-16T12:48:37;6.63;;;1.80;;
30185;SDS011;31152;49.190;8.122;2022-10-16T12:51:22;4.60;;;1.70;;
30185;SDS011;31152;49.190;8.122;2022-10-16T12:54:12;7.72;;;2.20;;
30185;SDS011;31152;49.190;8.122;2022-10-16T13:11:09;4.25;;;1.70;;
30185;SDS011;31152;49.190;8.122;2022-10-16T13:16:49;5.60;;;1.95;;
30185;SDS011;31152;49.190;8.122;2022-10-16T13:19:34;5.32;;;1.80;;
30185;SDS011;31152;49.190;8.122;2022-10-16T13:23:02;4.22;;;2.20;;
30185;SDS011;31152;49.190;8.122;2022-10-16T13:28:11;5.63;;;2.10;;
30185;SDS011;31152;49.190;8.122;2022-10-16T13:35:51;7.70;;;2.30;;
30185;SDS011;31152;49.190;8.122;2022-10-16T13:38:23;3.30;;;2.40;;
30185;SDS011;31152;49.190;8.122;2022-10-16T13:40:55;12.43;;;2.50;;
30185;SDS011;31152;49.190;8.122;2022-10-16T13:43:27;11.75;;;2.63;;
30185;SDS011;31152;49.190;8.122;2022-10-16T13:48:42;11.02;;;2.58;;
30185;SDS011;31152;49.190;8.122;2022-10-16T13:51:14;6.65;;;2.28;;
30185;SDS011;31152;49.190;8.122;2022-10-16T13:53:45;5.85;;;2.05;;
30185;SDS011;31152;49.190;8.122;2022-10-16T13:56:13;4.82;;;2.03;;
30185;SDS011;31152;49.190;8.122;2022-10-16T13:58:42;8.75;;;1.98;;
30185;SDS011;31152;49.190;8.122;2022-10-16T14:03:40;6.28;;;2.30;;
30185;SDS011;31152;49.190;8.122;2022-10-16T14:06:11;8.57;;;2.45;;
30185;SDS011;31152;49.190;8.122;2022-10-16T14:11:09;4.90;;;2.35;;
30185;SDS011;31152;49.190;8.122;2022-10-16T14:13:43;4.00;;;2.28;;
30185;SDS011;31152;49.190;8.122;2022-10-16T14:16:20;10.25;;;2.85;;
30185;SDS011;31152;49.190;8.122;2022-10-16T14:18:56;4.45;;;2.30;;
30185;SDS011;31152;49.190;8.122;2022-10-16T14:21:27;5.90;;;2.42;;
30185;SDS011;31152;49.190;8.122;2022-10-16T14:23:54;6.93;;;2.10;;
30185;SDS011;31152;49.190;8.122;2022-10-16T14:26:26;5.25;;;1.95;;
30185;SDS011;31152;49.190;8.122;2022-10-16T14:29:08;2.83;;;1.83;;
30185;SDS011;31152;49.190;8.122;2022-10-16T14:31:42;6.03;;;1.90;;
30185;SDS011;31152;49.190;8.122;2022-10-16T14:34:28;6.07;;;1.95;;
30185;SDS011;31152;49.190;8.122;2022-10-16T14:36:59;6.93;;;2.25;;
30185;SDS011;31152;49.190;8.122;2022-10-16T14:39:38;4.35;;;1.90;;
30185;SDS011;31152;49.190;8.122;2022-10-16T14:42:19;5.78;;;1.95;;
30185;SDS011;31152;49.190;8.122;2022-10-16T14:44:50;9.68;;;2.15;;
30185;SDS011;31152;49.190;8.122;2022-10-16T14:47:20;5.68;;;2.30;;
30185;SDS011;31152;49.190;8.122;2022-10-16T14:49:52;7.50;;;2.20;;
30185;SDS011;31152;49.190;8.122;2022-10-16T14:52:21;5.13;;;1.98;;
30185;SDS011;31152;49.190;8.122;2022-10-16T14:54:49;5.07;;;1.80;;
30185;SDS011;31152;49.190;8.122;2022-10-16T14:57:17;7.43;;;2.25;;
30185;SDS011;31152;49.190;8.122;2022-10-16T14:59:45;4.10;;;1.98;;
30185;SDS011;31152;49.190;8.122;2022-10-16T15:02:33;6.45;;;1.98;;
30185;SDS011;31152;49.190;8.122;2022-10-16T15:05:14;6.55;;;2.13;;
30185;SDS011;31152;49.190;8.122;2022-10-16T15:07:48;4.05;;;1.90;;
30185;SDS011;31152;49.190;8.122;2022-10-16T15:10:18;6.95;;;2.40;;
30185;SDS011;31152;49.190;8.122;2022-10-16T15:12:45;5.50;;;2.20;;
30185;SDS011;31152;49.190;8.122;2022-10-16T15:18:02;10.60;;;2.33;;
30185;SDS011;31152;49.190;8.122;2022-10-16T15:20:33;3.45;;;2.30;;
30185;SDS011;31152;49.190;8.122;2022-10-16T15:23:17;17.58;;;2.40;;
30185;SDS011;31152;49.190;8.122;2022-10-16T15:25:49;7.50;;;2.38;;
30185;SDS011;31152;49.190;8.122;2022-10-16T15:28:20;7.68;;;2.30;;
30185;SDS011;31152;49.190;8.122;2022-10-16T15:30:53;7.93;;;2.13;;
30185;SDS011;31152;49.190;8.122;2022-10-16T15:33:25;2.72;;;1.98;;
30185;SDS011;31152;49.190;8.122;2022-10-16T15:36:05;6.17;;;2.43;;
30185;SDS011;31152;49.190;8.122;2022-10-16T15:38:32;4.32;;;2.28;;
30185;SDS011;31152;49.190;8.122;2022-10-16T15:40:59;10.10;;;2.33;;
30185;SDS011;31152;49.190;8.122;2022-10-16T15:43:26;7.05;;;1.98;;
30185;SDS011;31152;49.190;8.122;2022-10-16T15:46:00;5.80;;;1.70;;
30185;SDS011;31152;49.190;8.122;2022-10-16T15:48:32;4.63;;;2.10;;
30185;SDS011;31152;49.190;8.122;2022-10-16T15:50:59;7.75;;;2.08;;
30185;SDS011;31152;49.190;8.122;2022-10-16T15:53:30;3.17;;;1.83;;
30185;SDS011;31152;49.190;8.122;2022-10-16T15:55:56;6.57;;;1.92;;
30185;SDS011;31152;49.190;8.122;2022-10-16T15:58:23;3.80;;;2.10;;
30185;SDS011;31152;49.190;8.122;2022-10-16T16:00:54;5.93;;;2.58;;
30185;SDS011;31152;49.190;8.122;2022-10-16T16:03:27;2.83;;;2.00;;
30185;SDS011;31152;49.190;8.122;2022-10-16T16:05:54;14.25;;;2.47;;
30185;SDS011;31152;49.190;8.122;2022-10-16T16:08:21;7.32;;;2.20;;
30185;SDS011;31152;49.190;8.122;2022-10-16T16:11:04;7.65;;;2.28;;
30185;SDS011;31152;49.190;8.122;2022-10-16T16:13:32;4.85;;;2.97;;
30185;SDS011;31152;49.190;8.122;2022-10-16T16:15:59;9.50;;;2.28;;
30185;SDS011;31152;49.190;8.122;2022-10-16T16:18:26;8.50;;;2.40;;
30185;SDS011;31152;49.190;8.122;2022-10-16T16:20:54;3.55;;;2.30;;
30185;SDS011;31152;49.190;8.122;2022-10-16T16:23:23;4.97;;;2.15;;
30185;SDS011;31152;49.190;8.122;2022-10-16T16:28:53;6.75;;;2.70;;
30185;SDS011;31152;49.190;8.122;2022-10-16T16:31:20;5.00;;;2.38;;
30185;SDS011;31152;49.190;8.122;2022-10-16T16:33:50;10.30;;;2.63;;
30185;SDS011;31152;49.190;8.122;2022-10-16T16:36:17;5.30;;;2.20;;
30185;SDS011;31152;49.190;8.122;2022-10-16T16:38:44;13.68;;;2.72;;
30185;SDS011;31152;49.190;8.122;2022-10-16T16:41:21;5.78;;;2.28;;
30185;SDS011;31152;49.190;8.122;2022-10-16T16:43:49;6.13;;;2.85;;
30185;SDS011;31152;49.190;8.122;2022-10-16T16:46:20;12.10;;;2.67;;
30185;SDS011;31152;49.190;8.122;2022-10-16T16:48:51;10.00;;;2.95;;
30185;SDS011;31152;49.190;8.122;2022-10-16T16:51:19;11.45;;;2.95;;
30185;SDS011;31152;49.190;8.122;2022-10-16T16:53:47;9.32;;;3.50;;
30185;SDS011;31152;49.190;8.122;2022-10-16T16:56:19;6.72;;;2.85;;
30185;SDS011;31152;49.190;8.122;2022-10-16T16:58:47;29.13;;;3.28;;
30185;SDS011;31152;49.190;8.122;2022-10-16T17:01:15;7.75;;;3.30;;
30185;SDS011;31152;49.190;8.122;2022-10-16T17:03:47;7.72;;;2.88;;
30185;SDS011;31152;49.190;8.122;2022-10-16T17:06:17;12.23;;;3.00;;
30185;SDS011;31152;49.190;8.122;2022-10-16T17:08:47;7.30;;;3.45;;
30185;SDS011;31152;49.190;8.122;2022-10-16T17:11:17;5.85;;;3.80;;
30185;SDS011;31152;49.190;8.122;2022-10-16T17:13:46;8.25;;;4.38;;
30185;SDS011;31152;49.190;8.122;2022-10-16T17:16:21;6.15;;;4.00;;
30185;SDS011;31152;49.190;8.122;2022-10-16T17:18:49;9.63;;;3.83;;
30185;SDS011;31152;49.190;8.122;2022-10-16T17:21:16;9.98;;;4.22;;
30185;SDS011;31152;49.190;8.122;2022-10-16T17:23:42;12.48;;;4.57;;
30185;SDS011;31152;49.190;8.122;2022-10-16T17:26:13;8.88;;;5.10;;
30185;SDS011;31152;49.190;8.122;2022-10-16T17:28:41;12.98;;;6.30;;
30185;SDS011;31152;49.190;8.122;2022-10-16T17:33:37;12.77;;;4.93;;